EIW weather

County Memorial Airport
New Madrid, Missouri, United States

Public forecast

Using degrees Fahrenheit for public forecast. Weather courtesy of forecast.io.

METAR (pilot weather report)

Closest report is Sikeston Memorial Municipal Airport, 21.9 nm (40.6 km) N. Retrieved 2019/06/25 14:35 UTC (18 minutes ago):

KSIK 251435Z AUTO 00000KT 10SM CLR 27/16 A3006 RMK AO2

TAF (pilot weather forecast)

Closest forecast is Cape Girardeau Regional Airport, 41.5 nm (76.8 km) N. Retrieved 2019/06/25 12:22 UTC (3 hours ago):

TAF KCGI 251120Z 2512/2612 20007KT P6SM SCT250 FM260100 19003KT P6SM SCT250